createdAt,value
2019-06-10T00:01:44.320Z,99.90
2019-06-10T00:07:46.497Z,99.90
2019-06-10T00:13:50.661Z,99.90
2019-06-10T00:19:52.780Z,99.90
2019-06-10T00:25:55.315Z,99.90
2019-06-10T00:31:58.505Z,99.90
2019-06-10T00:38:03.387Z,99.90
2019-06-10T00:44:05.626Z,99.90
2019-06-10T00:50:13.087Z,99.90
2019-06-10T00:56:14.465Z,99.90
2019-06-10T01:02:16.988Z,99.90
2019-06-10T01:08:21.382Z,99.90
2019-06-10T01:14:23.350Z,99.90
2019-06-10T01:20:25.675Z,99.90
2019-06-10T01:26:30.861Z,99.90
2019-06-10T01:32:33.656Z,99.90
2019-06-10T01:38:36.096Z,99.90
2019-06-10T01:44:38.274Z,99.90
2019-06-10T01:50:40.702Z,99.90
2019-06-10T01:56:43.048Z,99.90
2019-06-10T02:02:45.377Z,99.90
2019-06-10T02:08:47.673Z,99.90
2019-06-10T02:14:50.900Z,99.90
2019-06-10T02:20:53.520Z,99.90
2019-06-10T02:26:55.840Z,99.90
2019-06-10T02:32:58.287Z,99.90
2019-06-10T02:39:04.302Z,99.90
2019-06-10T02:45:06.344Z,99.90
2019-06-10T02:51:08.690Z,99.90
2019-06-10T02:57:13.941Z,99.90
2019-06-10T03:03:19.863Z,99.90
2019-06-10T03:09:20.492Z,99.90
2019-06-10T03:15:25.155Z,99.90
2019-06-10T03:21:28.431Z,99.90
2019-06-10T03:27:32.809Z,99.90
2019-06-10T03:33:40.685Z,99.90
2019-06-10T03:39:38.949Z,99.90
2019-06-10T03:45:42.574Z,99.90
2019-06-10T03:51:45.031Z,99.90
2019-06-10T03:57:47.261Z,99.90
2019-06-10T04:03:49.522Z,99.90
2019-06-10T04:09:52.604Z,99.60
2019-06-10T04:15:56.614Z,98.40
2019-06-10T04:21:59.297Z,96.60
2019-06-10T04:28:03.165Z,94.60
2019-06-10T04:34:05.377Z,93.20
2019-06-10T04:40:07.988Z,91.20
2019-06-10T04:46:12.436Z,91.20
2019-06-10T04:52:14.402Z,92.50
2019-06-10T04:58:16.703Z,92.30
2019-06-10T05:04:18.973Z,89.20
2019-06-10T05:10:23.699Z,84.50
2019-06-10T05:16:29.054Z,79.90
2019-06-10T05:22:30.588Z,75.80
2019-06-10T05:28:34.334Z,72.30
2019-06-10T05:34:36.797Z,76.80
2019-06-10T05:40:39.153Z,78.10
2019-06-10T05:46:43.541Z,76.70
2019-06-10T05:52:45.867Z,71.40
2019-06-10T05:58:48.326Z,66.60
2019-06-10T06:04:52.922Z,67.50
2019-06-10T06:10:54.782Z,67.00
2019-06-10T06:16:56.985Z,64.70
2019-06-10T06:22:59.364Z,63.80
2019-06-10T06:29:02.216Z,60.80
2019-06-10T06:35:05.445Z,56.80
2019-06-10T06:41:07.878Z,54.30
2019-06-10T06:47:10.413Z,52.70
2019-06-10T06:53:27.788Z,50.20
2019-06-10T06:59:17.009Z,47.70
2019-06-10T07:05:19.786Z,45.40
2019-06-10T07:11:24.371Z,43.30
2019-06-10T07:17:26.783Z,45.40
2019-06-10T07:23:29.189Z,48.70
2019-06-10T07:29:34.125Z,54.40
2019-06-10T07:35:37.258Z,59.30
2019-06-10T07:41:47.325Z,63.60
2019-06-10T07:47:47.153Z,58.70
2019-06-10T07:53:52.292Z,51.70
2019-06-10T07:59:53.799Z,51.20
2019-06-10T08:05:56.060Z,50.50
2019-06-10T08:11:58.423Z,51.00
2019-06-10T08:18:04.120Z,50.20
2019-06-10T08:24:04.938Z,48.40
2019-06-10T08:30:21.128Z,48.80
2019-06-10T08:36:13.526Z,50.10
2019-06-10T08:42:16.158Z,52.20
2019-06-10T08:48:18.483Z,52.40
2019-06-10T08:54:23.275Z,53.60
2019-06-10T09:00:26.605Z,50.20
2019-06-10T09:06:28.995Z,52.60
2019-06-10T09:12:36.371Z,51.50
2019-06-10T09:18:35.280Z,49.20
2019-06-10T09:24:37.624Z,49.20
2019-06-10T09:30:43.598Z,50.30
2019-06-10T09:42:52.023Z,50.60
2019-06-10T09:48:56.054Z,51.30
2019-06-10T09:54:58.792Z,49.90
2019-06-10T10:01:03.418Z,49.30
2019-06-10T10:07:07.491Z,49.20
2019-06-10T10:13:10.222Z,51.60
2019-06-10T10:19:13.126Z,53.60
2019-06-10T10:25:15.605Z,51.90
2019-06-10T10:31:18.003Z,53.30
2019-06-10T10:37:22.746Z,53.20
2019-06-10T10:43:32.718Z,55.00
2019-06-10T10:49:28.900Z,55.90
2019-06-10T10:55:33.372Z,58.50
2019-06-10T11:01:35.500Z,61.80
2019-06-10T11:07:37.960Z,60.00
2019-06-10T11:13:43.285Z,61.70
2019-06-10T11:19:45.530Z,62.00
2019-06-10T11:25:47.917Z,63.60
2019-06-10T11:31:50.498Z,63.50
2019-06-10T11:37:56.420Z,62.40
2019-06-10T11:44:00.605Z,61.30
2019-06-10T11:50:03.620Z,62.80
2019-06-10T11:56:05.849Z,62.10
2019-06-10T12:02:08.671Z,62.80
2019-06-10T12:08:13.039Z,63.60
2019-06-10T12:14:15.195Z,63.10
2019-06-10T12:20:18.047Z,64.90
2019-06-10T12:26:22.513Z,66.80
2019-06-10T12:32:24.489Z,66.80
2019-06-10T12:38:26.799Z,66.50
2019-06-10T12:44:29.712Z,65.30
2019-06-10T12:50:32.007Z,66.20
2019-06-10T12:56:34.147Z,65.50
2019-06-10T13:02:36.920Z,63.90
2019-06-10T13:08:42.849Z,62.80
2019-06-10T13:14:44.781Z,63.50
2019-06-10T13:20:47.676Z,64.10
2019-06-10T13:26:52.251Z,63.30
2019-06-10T13:32:54.266Z,62.20
2019-06-10T13:38:57.649Z,62.10
2019-06-10T13:45:04.923Z,61.90
2019-06-10T13:51:09.099Z,65.20
2019-06-10T13:57:13.626Z,65.60
2019-06-10T14:03:16.331Z,67.00
2019-06-10T14:09:18.567Z,68.20
2019-06-10T14:15:22.614Z,68.20
2019-06-10T14:21:24.932Z,67.50
2019-06-10T14:27:27.249Z,68.40
2019-06-10T14:33:29.663Z,68.50
2019-06-10T14:39:32.927Z,68.50
2019-06-10T14:45:37.599Z,70.80
2019-06-10T14:51:42.932Z,71.00
2019-06-10T14:57:44.283Z,72.00
2019-06-10T15:03:46.875Z,73.00
2019-06-10T15:09:49.188Z,74.80
2019-06-10T15:15:53.210Z,76.40
2019-06-10T15:21:55.762Z,76.60
2019-06-10T15:27:58.048Z,76.60
2019-06-10T15:34:02.728Z,76.20
2019-06-10T15:40:05.406Z,76.50
2019-06-10T15:46:07.792Z,76.00
2019-06-10T15:52:10.963Z,75.80
2019-06-10T15:58:15.973Z,76.40
2019-06-10T16:04:19.315Z,75.80
2019-06-10T16:10:27.455Z,76.40
2019-06-10T16:16:26.810Z,76.20
2019-06-10T16:22:29.209Z,76.40
2019-06-10T16:28:32.883Z,76.90
2019-06-10T16:34:35.453Z,77.30
2019-06-10T16:40:37.870Z,76.70
2019-06-10T16:46:42.933Z,78.60
2019-06-10T16:52:44.673Z,78.80
2019-06-10T16:58:47.029Z,78.90
2019-06-10T17:04:52.509Z,78.70
2019-06-10T17:10:53.818Z,79.40
2019-06-10T17:16:56.126Z,80.30
2019-06-10T17:23:00.294Z,80.00
2019-06-10T17:29:02.930Z,80.70
2019-06-10T17:35:05.497Z,80.60
2019-06-10T17:41:07.869Z,82.10
2019-06-10T17:47:10.304Z,81.80
2019-06-10T17:53:13.866Z,82.20
2019-06-10T17:59:17.030Z,82.50
2019-06-10T18:05:24.144Z,83.20
2019-06-10T18:11:28.059Z,84.40
2019-06-10T18:17:31.214Z,85.30
2019-06-10T18:23:36.856Z,86.10
2019-06-10T18:29:39.239Z,87.20
2019-06-10T18:35:47.446Z,87.90
2019-06-10T18:41:52.740Z,88.40
2019-06-10T18:47:58.517Z,89.00
2019-06-10T18:54:00.931Z,90.00
2019-06-10T19:00:11.110Z,90.30
2019-06-10T19:06:09.696Z,90.30
2019-06-10T19:12:13.383Z,90.60
2019-06-10T19:18:15.755Z,90.60
2019-06-10T19:24:18.086Z,90.50
2019-06-10T19:30:23.104Z,90.60
2019-06-10T19:36:26.264Z,90.20
2019-06-10T19:42:29.044Z,90.00
2019-06-10T19:48:55.428Z,89.90
2019-06-10T19:54:46.953Z,89.20
2019-06-10T20:00:54.457Z,89.20
2019-06-10T20:06:56.536Z,89.90
2019-06-10T20:12:58.848Z,90.30
2019-06-10T20:19:03.057Z,90.50
2019-06-10T20:25:05.524Z,90.80
2019-06-10T20:31:07.882Z,92.20
2019-06-10T20:37:10.319Z,92.40
2019-06-10T20:43:13.237Z,91.40
2019-06-10T20:49:16.823Z,91.80
2019-06-10T20:55:19.180Z,92.00
2019-06-10T21:01:25.303Z,92.40
2019-06-10T21:07:26.317Z,92.70
2019-06-10T21:13:28.824Z,93.30
2019-06-10T21:19:32.980Z,94.00
2019-06-10T21:25:35.035Z,94.60
2019-06-10T21:31:37.582Z,94.60
2019-06-10T21:37:42.538Z,94.90
2019-06-10T21:43:49.414Z,95.70
2019-06-10T21:49:48.422Z,95.90
2019-06-10T21:55:53.503Z,95.90
2019-06-10T22:01:54.992Z,96.00
2019-06-10T22:07:57.271Z,96.60
2019-06-10T22:13:59.446Z,96.90
2019-06-10T22:20:01.939Z,97.00
2019-06-10T22:26:04.306Z,97.80
2019-06-10T22:32:06.543Z,98.30
2019-06-10T22:38:08.730Z,98.40
2019-06-10T22:44:12.692Z,98.40
2019-06-10T22:50:15.671Z,98.50
2019-06-10T22:56:18.453Z,99.50
2019-06-10T23:02:22.795Z,99.50
2019-06-10T23:08:24.614Z,99.70
2019-06-10T23:14:26.972Z,99.90
2019-06-10T23:20:29.144Z,99.90
2019-06-10T23:26:33.241Z,99.90
2019-06-10T23:32:36.437Z,99.90
2019-06-10T23:38:38.720Z,99.90
2019-06-10T23:44:40.999Z,99.90
2019-06-10T23:50:43.891Z,99.90
2019-06-10T23:56:46.244Z,99.90
